Terminal Aerodrome Forecast
Issued by NWS Amarillo, TX

Home | Current Version | Previous Version | Text Only | Print | Product List | Glossary On
Versions: 1 2 3 4 5 6 7 8 9 10 11 12 13 14 15 16
359
FTUS44 KAMA 261951 AAA
TAFDHT
TAF AMD
KDHT 261951Z 2620/2718 32018G28KT P6SM SCT030 SCT200
     FM262200 32015KT P6SM SCT030 BKN200
     FM270000 10008KT P6SM BKN200
     FM271400 25021G30KT P6SM BKN200=

USA.gov is the U.S. government's official web portal to all federal, state and local government web resources and services.